createdAt,value
2022-09-18T00:03:54.208Z,97191.42
2022-09-18T00:10:19.154Z,97194.73
2022-09-18T00:12:48.031Z,97198.95
2022-09-18T00:15:17.000Z,97196.33
2022-09-18T00:17:45.798Z,97199.70
2022-09-18T00:20:14.791Z,97203.27
2022-09-18T00:22:43.837Z,97198.83
2022-09-18T00:25:12.654Z,97201.02
2022-09-18T00:27:41.654Z,97198.84
2022-09-18T00:30:14.059Z,97202.55
2022-09-18T00:32:48.715Z,97201.94
2022-09-18T00:50:55.585Z,97200.16
2022-09-18T00:53:24.355Z,97208.61
2022-09-18T00:55:52.998Z,97202.86
2022-09-18T00:58:22.232Z,97205.64
2022-09-18T01:00:51.220Z,97203.38
2022-09-18T01:03:19.905Z,97204.61
2022-09-18T01:06:02.873Z,97202.39
2022-09-18T01:08:44.225Z,97194.52
2022-09-18T01:11:34.249Z,97198.66
2022-09-18T01:14:13.944Z,97193.77
2022-09-18T01:16:50.994Z,97197.36
2022-09-18T01:19:47.644Z,97200.56
2022-09-18T01:22:31.350Z,97202.06
2022-09-18T01:25:14.374Z,97206.73
2022-09-18T01:28:00.244Z,97208.03
2022-09-18T01:30:32.101Z,97212.04
2022-09-18T01:33:07.852Z,97212.29
2022-09-18T01:35:44.748Z,97208.96
2022-09-18T01:38:19.699Z,97212.91
2022-09-18T01:40:53.418Z,97216.26
2022-09-18T01:43:24.899Z,97209.20
2022-09-18T01:46:01.212Z,97210.42
2022-09-18T01:48:37.062Z,97206.59
2022-09-18T01:51:13.404Z,97208.89
2022-09-18T01:53:49.010Z,97213.73
2022-09-18T01:56:24.419Z,97212.55
2022-09-18T01:58:58.332Z,97211.91
2022-09-18T02:01:41.700Z,97211.14
2022-09-18T02:04:15.883Z,97212.11
2022-09-18T02:06:52.385Z,97214.38
2022-09-18T02:09:21.595Z,97212.42
2022-09-18T02:11:57.506Z,97209.83
2022-09-18T02:14:35.830Z,97208.13
2022-09-18T02:17:32.703Z,97207.04
2022-09-18T02:20:10.160Z,97210.66
2022-09-18T02:22:45.315Z,97204.58
2022-09-18T02:25:21.032Z,97203.45
2022-09-18T02:27:56.732Z,97202.77
2022-09-18T02:30:27.067Z,97203.44
2022-09-18T02:32:56.162Z,97206.39
2022-09-18T02:35:33.859Z,97200.39
2022-09-18T02:38:12.741Z,97198.10
2022-09-18T02:40:49.761Z,97199.02
2022-09-18T02:43:33.363Z,97202.98
2022-09-18T02:46:12.406Z,97202.02
2022-09-18T02:48:55.915Z,97204.69
2022-09-18T02:51:30.818Z,97205.13
2022-09-18T02:54:06.254Z,97204.29
2022-09-18T02:56:40.114Z,97201.95
2022-09-18T02:59:17.878Z,97194.73
2022-09-18T03:01:55.702Z,97199.17
2022-09-18T03:04:28.531Z,97198.64
2022-09-18T03:07:20.736Z,97201.61
2022-09-18T03:09:51.509Z,97200.77
2022-09-18T03:12:20.344Z,97199.14
2022-09-18T03:14:50.700Z,97205.17
2022-09-18T03:17:19.577Z,97207.05
2022-09-18T03:19:48.844Z,97206.52
2022-09-18T03:22:17.749Z,97204.92
2022-09-18T03:24:46.695Z,97202.42
2022-09-18T03:27:18.366Z,97204.21
2022-09-18T03:29:47.740Z,97209.35
2022-09-18T03:32:18.878Z,97206.27
2022-09-18T03:34:51.211Z,97205.03
2022-09-18T03:37:20.420Z,97203.95
2022-09-18T03:39:49.346Z,97209.77
2022-09-18T03:42:19.303Z,97207.19
2022-09-18T03:44:52.382Z,97210.81
2022-09-18T03:47:30.094Z,97209.69
2022-09-18T03:50:01.875Z,97208.15
2022-09-18T03:52:34.148Z,97208.33
2022-09-18T03:55:12.184Z,97209.11
2022-09-18T03:57:59.752Z,97207.77
2022-09-18T04:00:47.939Z,97210.58
2022-09-18T04:03:21.377Z,97207.30
2022-09-18T04:06:09.030Z,97206.77
2022-09-18T04:08:54.300Z,97202.79
2022-09-18T04:11:30.501Z,97202.96
2022-09-18T04:13:59.463Z,97203.92
2022-09-18T04:16:28.879Z,97200.11
2022-09-18T04:18:58.910Z,97200.23
2022-09-18T04:21:28.282Z,97196.69
2022-09-18T04:23:59.058Z,97192.41
2022-09-18T04:26:28.268Z,97194.02
2022-09-18T04:28:59.293Z,97195.83
2022-09-18T04:31:32.639Z,97194.42
2022-09-18T04:34:04.126Z,97192.33
2022-09-18T04:36:35.681Z,97192.55
2022-09-18T04:39:09.846Z,97198.94
2022-09-18T04:41:38.695Z,97195.48
2022-09-18T04:44:07.623Z,97202.08
2022-09-18T04:46:36.976Z,97198.14
2022-09-18T04:49:05.989Z,97200.02
2022-09-18T04:51:34.840Z,97199.64
2022-09-18T04:54:06.366Z,97201.08
2022-09-18T04:56:37.961Z,97205.88
2022-09-18T04:59:07.366Z,97209.19
2022-09-18T05:01:36.684Z,97206.75
2022-09-18T05:04:12.442Z,97208.02
2022-09-18T05:06:51.910Z,97209.23
2022-09-18T05:09:21.220Z,97215.16
2022-09-18T05:11:50.603Z,97215.72
2022-09-18T05:14:19.927Z,97214.58
2022-09-18T05:16:49.299Z,97217.66
2022-09-18T05:19:41.133Z,97220.40
2022-09-18T05:22:14.757Z,97219.42
2022-09-18T05:24:49.566Z,97219.84
2022-09-18T05:27:19.917Z,97217.96
2022-09-18T05:29:50.379Z,97215.66
2022-09-18T05:32:22.559Z,97219.02
2022-09-18T05:34:52.539Z,97220.20
2022-09-18T05:37:21.435Z,97220.84
2022-09-18T05:39:53.957Z,97224.83
2022-09-18T05:42:22.870Z,97225.60
2022-09-18T05:44:51.704Z,97226.80
2022-09-18T05:47:24.516Z,97225.42
2022-09-18T05:49:53.472Z,97230.91
2022-09-18T05:52:24.671Z,97227.74
2022-09-18T05:54:54.680Z,97227.71
2022-09-18T05:57:23.692Z,97230.39
2022-09-18T05:59:52.506Z,97228.99
2022-09-18T06:02:22.198Z,97233.17
2022-09-18T06:05:06.311Z,97232.05
2022-09-18T06:07:35.524Z,97228.89
2022-09-18T06:10:04.977Z,97229.70
2022-09-18T06:12:33.901Z,97227.98
2022-09-18T06:15:04.470Z,97219.30
2022-09-18T06:17:42.462Z,97219.73
2022-09-18T06:20:11.802Z,97219.20
2022-09-18T06:22:44.304Z,97227.29
2022-09-18T06:25:13.567Z,97232.84
2022-09-18T06:27:42.264Z,97234.53
2022-09-18T06:30:13.708Z,97233.45
2022-09-18T06:32:42.380Z,97236.10
2022-09-18T06:35:11.422Z,97233.84
2022-09-18T06:37:40.373Z,97233.97
2022-09-18T06:40:20.508Z,97229.84
2022-09-18T06:43:15.661Z,97231.82
2022-09-18T06:46:05.243Z,97237.07
2022-09-18T06:48:39.590Z,97233.61
2022-09-18T06:51:09.589Z,97229.66
2022-09-18T06:53:58.484Z,97234.80
2022-09-18T06:56:27.242Z,97236.05
2022-09-18T06:58:55.964Z,97237.09
2022-09-18T07:01:24.874Z,97238.27
2022-09-18T07:04:04.295Z,97234.45
2022-09-18T07:06:38.535Z,97235.77
2022-09-18T07:09:07.321Z,97235.13
2022-09-18T07:12:06.405Z,97234.70
2022-09-18T07:14:45.584Z,97232.63
2022-09-18T07:17:18.730Z,97236.11
2022-09-18T07:19:53.624Z,97230.91
2022-09-18T07:22:26.192Z,97231.89
2022-09-18T07:24:54.905Z,97233.31
2022-09-18T07:27:23.914Z,97228.41
2022-09-18T07:29:53.013Z,97233.98
2022-09-18T07:32:21.855Z,97237.01
2022-09-18T07:34:52.202Z,97235.16
2022-09-18T07:37:26.213Z,97238.64
2022-09-18T07:40:12.011Z,97240.27
2022-09-18T07:43:01.071Z,97235.25
2022-09-18T07:45:33.646Z,97231.35
2022-09-18T07:48:04.875Z,97236.69
2022-09-18T07:50:34.395Z,97234.20
2022-09-18T07:53:04.899Z,97235.55
2022-09-18T07:55:37.738Z,97233.61
2022-09-18T07:58:07.634Z,97239.48
2022-09-18T08:00:54.815Z,97249.21
2022-09-18T08:03:28.553Z,97249.91
2022-09-18T08:06:17.126Z,97248.25
2022-09-18T08:08:57.627Z,97246.45
2022-09-18T08:11:37.753Z,97243.73
2022-09-18T08:14:39.097Z,97242.66
2022-09-18T08:17:34.009Z,97238.45
2022-09-18T08:20:21.591Z,97236.42
2022-09-18T08:22:53.798Z,97236.91
2022-09-18T08:25:27.619Z,97236.83
2022-09-18T08:28:00.041Z,97234.58
2022-09-18T08:30:36.720Z,97235.24
2022-09-18T08:33:11.551Z,97242.48
2022-09-18T08:35:44.118Z,97243.47
2022-09-18T08:38:24.497Z,97249.77
2022-09-18T08:41:29.155Z,97247.34
2022-09-18T08:44:04.229Z,97249.90
2022-09-18T08:46:38.651Z,97250.46
2022-09-18T08:49:21.077Z,97251.65
2022-09-18T08:51:58.747Z,97248.59
2022-09-18T08:54:45.672Z,97238.31
2022-09-18T08:57:41.820Z,97229.11
2022-09-18T09:00:34.881Z,97224.05
2022-09-18T09:03:26.611Z,97221.80
2022-09-18T09:05:58.954Z,97219.77
2022-09-18T09:08:58.587Z,97224.27
2022-09-18T09:11:41.088Z,97222.74
2022-09-18T09:14:39.952Z,97227.06
2022-09-18T09:17:28.635Z,97229.04
2022-09-18T09:20:05.732Z,97233.16
2022-09-18T09:22:43.911Z,97236.07
2022-09-18T09:25:22.456Z,97241.05
2022-09-18T09:28:16.708Z,97238.59
2022-09-18T09:31:18.104Z,97234.55
2022-09-18T09:34:14.243Z,97237.40
2022-09-18T09:37:00.924Z,97245.98
2022-09-18T09:39:37.783Z,97250.50
2022-09-18T09:42:12.921Z,97250.27
2022-09-18T09:44:49.646Z,97253.21
2022-09-18T09:47:30.592Z,97251.56
2022-09-18T09:50:16.045Z,97248.60
2022-09-18T09:52:47.306Z,97249.92
2022-09-18T09:55:29.803Z,97253.82
2022-09-18T09:58:11.124Z,97257.63
2022-09-18T10:00:47.104Z,97254.88
2022-09-18T10:03:35.156Z,97251.66
2022-09-18T10:06:15.586Z,97259.54
2022-09-18T10:08:50.641Z,97258.38
2022-09-18T10:11:20.643Z,97256.08
2022-09-18T10:14:02.010Z,97259.42
2022-09-18T10:16:35.204Z,97258.47
2022-09-18T10:19:04.947Z,97261.46
2022-09-18T10:21:41.478Z,97256.58
2022-09-18T10:24:19.518Z,97264.73
2022-09-18T10:26:54.166Z,97262.51
2022-09-18T10:29:23.441Z,97261.27
2022-09-18T10:31:56.506Z,97257.02
2022-09-18T10:34:38.592Z,97256.40
2022-09-18T10:37:15.975Z,97261.30
2022-09-18T10:39:53.916Z,97256.95
2022-09-18T10:42:26.667Z,97265.42
2022-09-18T10:45:04.645Z,97263.16
2022-09-18T10:47:39.428Z,97270.17
2022-09-18T10:50:19.309Z,97265.17
2022-09-18T10:52:49.371Z,97270.98
2022-09-18T10:55:31.068Z,97265.11
2022-09-18T10:58:12.759Z,97261.89
2022-09-18T11:00:53.042Z,97259.36
2022-09-18T11:03:42.912Z,97256.25
2022-09-18T11:06:25.319Z,97260.84
2022-09-18T11:08:59.954Z,97258.73
2022-09-18T11:11:33.018Z,97259.94
2022-09-18T11:14:22.233Z,97264.89
2022-09-18T11:17:04.061Z,97268.29
2022-09-18T11:19:42.089Z,97273.09
2022-09-18T11:22:37.309Z,97279.27
2022-09-18T11:25:21.752Z,97278.70
2022-09-18T11:27:57.965Z,97279.79
2022-09-18T11:30:31.696Z,97278.96
2022-09-18T11:33:25.028Z,97282.98
2022-09-18T11:36:00.731Z,97281.45
2022-09-18T11:38:32.365Z,97276.61
2022-09-18T11:41:03.701Z,97280.32
2022-09-18T11:43:41.074Z,97279.92
2022-09-18T11:46:19.941Z,97275.77
2022-09-18T11:49:03.747Z,97277.44
2022-09-18T11:51:53.240Z,97275.34
2022-09-18T11:54:28.694Z,97271.52
2022-09-18T11:57:01.651Z,97271.54
2022-09-18T11:59:44.729Z,97269.48
2022-09-18T12:02:20.272Z,97271.84
2022-09-18T12:04:54.967Z,97269.27
2022-09-18T12:07:39.845Z,97269.52
2022-09-18T12:10:17.330Z,97269.29
2022-09-18T12:12:51.869Z,97267.10
2022-09-18T12:15:23.916Z,97265.37
2022-09-18T12:17:56.715Z,97264.70
2022-09-18T12:20:32.292Z,97269.23
2022-09-18T12:23:04.495Z,97267.70
2022-09-18T12:25:41.534Z,97266.38
2022-09-18T12:28:35.786Z,97271.08
2022-09-18T12:31:19.303Z,97284.10
2022-09-18T12:33:58.798Z,97310.11
2022-09-18T12:36:52.162Z,97323.14
2022-09-18T12:39:36.890Z,97349.31
2022-09-18T12:42:24.528Z,97344.27
2022-09-18T12:45:23.896Z,97346.52
2022-09-18T12:48:12.734Z,97348.95
2022-09-18T12:50:58.940Z,97346.12
2022-09-18T12:53:49.054Z,97342.23
2022-09-18T12:56:31.724Z,97346.90
2022-09-18T12:59:19.193Z,97347.02
2022-09-18T13:01:51.454Z,97344.02
2022-09-18T13:04:26.171Z,97343.67
2022-09-18T13:07:05.663Z,97349.17
2022-09-18T13:09:42.715Z,97344.24
2022-09-18T13:12:17.685Z,97347.60
2022-09-18T13:14:50.629Z,97346.70
2022-09-18T13:17:25.035Z,97347.83
2022-09-18T13:19:59.499Z,97349.52
2022-09-18T13:22:35.932Z,97354.10
2022-09-18T13:25:20.197Z,97355.55
2022-09-18T13:27:56.917Z,97362.02
2022-09-18T13:30:31.244Z,97361.63
2022-09-18T13:33:03.283Z,97362.85
2022-09-18T13:35:34.900Z,97371.04
2022-09-18T13:38:13.310Z,97367.05
2022-09-18T13:40:43.918Z,97371.63
2022-09-18T13:43:36.310Z,97373.71
2022-09-18T13:46:07.075Z,97379.05
2022-09-18T13:48:45.729Z,97379.88
2022-09-18T13:51:23.369Z,97382.46
2022-09-18T13:54:16.463Z,97391.02
2022-09-18T13:57:20.131Z,97390.00
2022-09-18T13:59:55.046Z,97390.25
2022-09-18T14:02:30.460Z,97393.50
2022-09-18T14:05:37.205Z,97393.60
2022-09-18T14:08:35.664Z,97397.85
2022-09-18T14:11:16.827Z,97398.52
2022-09-18T14:13:54.721Z,97399.69
2022-09-18T14:16:40.243Z,97405.04
2022-09-18T14:19:30.493Z,97407.66
2022-09-18T14:22:01.398Z,97406.98
2022-09-18T14:24:55.358Z,97413.14
2022-09-18T14:27:55.840Z,97415.59
2022-09-18T14:30:27.212Z,97415.77
2022-09-18T14:33:06.213Z,97413.80
2022-09-18T14:35:44.076Z,97415.38
2022-09-18T14:38:26.402Z,97415.39
2022-09-18T14:41:03.072Z,97420.27
2022-09-18T14:43:34.203Z,97412.79
2022-09-18T14:46:07.005Z,97413.84
2022-09-18T14:48:39.097Z,97416.92
2022-09-18T14:51:19.042Z,97415.65
2022-09-18T14:53:50.398Z,97419.23
2022-09-18T14:56:27.226Z,97418.73
2022-09-18T14:58:59.413Z,97422.06
2022-09-18T15:01:30.691Z,97421.55
2022-09-18T15:04:02.098Z,97420.06
2022-09-18T15:06:35.445Z,97421.22
2022-09-18T15:09:10.256Z,97422.47
2022-09-18T15:12:01.219Z,97423.48
2022-09-18T15:14:38.928Z,97423.16
2022-09-18T15:17:19.299Z,97416.26
2022-09-18T15:20:04.006Z,97421.02
2022-09-18T15:22:34.611Z,97419.44
2022-09-18T15:25:04.923Z,97421.81
2022-09-18T15:27:35.545Z,97425.42
2022-09-18T15:30:10.539Z,97417.48
2022-09-18T15:32:45.538Z,97417.65
2022-09-18T15:35:21.367Z,97418.74
2022-09-18T15:37:57.952Z,97420.77
2022-09-18T15:40:32.339Z,97422.06
2022-09-18T15:43:03.760Z,97425.46
2022-09-18T15:45:35.726Z,97425.48
2022-09-18T15:48:43.776Z,97429.44
2022-09-18T15:51:16.286Z,97422.91
2022-09-18T15:54:11.138Z,97417.73
2022-09-18T15:56:50.001Z,97416.74
2022-09-18T15:59:30.721Z,97415.83
2022-09-18T16:02:04.278Z,97414.20
2022-09-18T16:04:36.812Z,97415.30
2022-09-18T16:07:24.949Z,97418.19
2022-09-18T16:09:55.076Z,97415.60
2022-09-18T16:12:36.234Z,97419.84
2022-09-18T16:15:25.339Z,97417.48
2022-09-18T16:18:03.544Z,97416.09
2022-09-18T16:20:47.018Z,97417.83
2022-09-18T16:23:20.649Z,97418.55
2022-09-18T16:26:10.463Z,97417.81
2022-09-18T16:28:47.267Z,97420.45
2022-09-18T16:31:18.528Z,97421.28
2022-09-18T16:33:56.449Z,97419.98
2022-09-18T16:36:29.292Z,97421.27
2022-09-18T16:39:00.922Z,97422.84
2022-09-18T16:41:34.503Z,97424.30
2022-09-18T16:44:07.384Z,97430.45
2022-09-18T16:46:43.058Z,97429.95
2022-09-18T16:49:16.322Z,97435.33
2022-09-18T16:51:46.019Z,97435.13
2022-09-18T16:54:17.310Z,97441.77
2022-09-18T16:56:51.044Z,97440.49
2022-09-18T16:59:23.937Z,97440.00
2022-09-18T17:02:03.799Z,97436.95
2022-09-18T17:04:33.043Z,97439.42
2022-09-18T17:07:03.160Z,97437.02
2022-09-18T17:09:32.162Z,97439.73
2022-09-18T17:12:01.483Z,97442.67
2022-09-18T17:14:34.275Z,97443.53
2022-09-18T17:17:06.620Z,97447.84
2022-09-18T17:19:36.352Z,97447.29
2022-09-18T17:22:05.374Z,97447.77
2022-09-18T17:24:34.325Z,97445.44
2022-09-18T17:27:06.771Z,97448.27
2022-09-18T17:29:40.793Z,97450.85
2022-09-18T17:32:12.041Z,97451.84
2022-09-18T17:34:41.446Z,97452.27
2022-09-18T17:37:13.361Z,97454.86
2022-09-18T17:39:42.306Z,97452.91
2022-09-18T17:42:13.789Z,97452.65
2022-09-18T17:44:43.207Z,97451.61
2022-09-18T17:47:13.078Z,97450.48
2022-09-18T17:49:45.552Z,97453.23
2022-09-18T17:52:18.779Z,97459.65
2022-09-18T17:54:47.590Z,97457.84
2022-09-18T17:57:16.879Z,97459.50
2022-09-18T17:59:49.983Z,97456.95
2022-09-18T18:02:19.807Z,97454.73
2022-09-18T18:04:50.876Z,97452.27
2022-09-18T18:07:20.224Z,97449.64
2022-09-18T18:09:54.998Z,97450.42
2022-09-18T18:12:27.820Z,97453.15
2022-09-18T18:14:59.466Z,97452.15
2022-09-18T18:17:36.339Z,97450.98
2022-09-18T18:20:10.317Z,97451.57
2022-09-18T18:22:39.861Z,97447.23
2022-09-18T18:25:12.178Z,97452.70
2022-09-18T18:27:41.109Z,97454.01
2022-09-18T18:30:15.919Z,97451.61
2022-09-18T18:32:45.577Z,97454.30
2022-09-18T18:35:14.509Z,97455.41
2022-09-18T18:37:44.525Z,97453.92
2022-09-18T18:40:17.454Z,97455.83
2022-09-18T18:42:46.951Z,97449.16
2022-09-18T18:45:16.112Z,97448.75
2022-09-18T18:47:48.205Z,97449.53
2022-09-18T18:50:17.671Z,97451.45
2022-09-18T18:52:46.941Z,97449.05
2022-09-18T18:55:16.100Z,97447.05
2022-09-18T18:57:45.349Z,97441.90
2022-09-18T19:00:15.017Z,97444.75
2022-09-18T19:02:48.248Z,97444.45
2022-09-18T19:05:28.002Z,97445.69
2022-09-18T19:07:59.253Z,97448.63
2022-09-18T19:10:29.275Z,97448.07
2022-09-18T19:12:59.318Z,97451.98
2022-09-18T19:15:28.807Z,97448.70
2022-09-18T19:17:58.662Z,97452.44
2022-09-18T19:20:27.855Z,97454.23
2022-09-18T19:22:56.929Z,97453.58
2022-09-18T19:25:27.548Z,97452.27
2022-09-18T19:27:56.905Z,97455.32
2022-09-18T19:30:26.758Z,97453.27
2022-09-18T19:32:56.045Z,97447.57
2022-09-18T19:35:25.163Z,97445.37
2022-09-18T19:37:57.101Z,97447.94
2022-09-18T19:40:27.831Z,97442.46
2022-09-18T19:43:01.554Z,97440.96
2022-09-18T19:45:36.026Z,97436.14
2022-09-18T19:48:09.858Z,97443.45
2022-09-18T19:50:39.548Z,97439.66
2022-09-18T19:53:08.847Z,97442.40
2022-09-18T19:55:38.022Z,97439.79
2022-09-18T19:58:06.888Z,97441.21
2022-09-18T20:00:39.215Z,97441.70
2022-09-18T20:03:08.961Z,97439.86
2022-09-18T20:05:38.326Z,97439.81
2022-09-18T20:08:08.440Z,97436.93
2022-09-18T20:10:42.691Z,97437.52
2022-09-18T20:13:12.556Z,97437.34
2022-09-18T20:15:41.288Z,97438.96
2022-09-18T20:18:10.018Z,97439.73
2022-09-18T20:20:38.917Z,97441.71
2022-09-18T20:23:07.666Z,97435.72
2022-09-18T20:25:36.513Z,97430.39
2022-09-18T20:28:08.017Z,97432.56
2022-09-18T20:30:37.972Z,97434.58
2022-09-18T20:33:09.691Z,97430.99
2022-09-18T20:35:38.398Z,97427.26
2022-09-18T20:38:07.255Z,97423.15
2022-09-18T20:40:39.062Z,97430.92
2022-09-18T20:43:08.242Z,97429.46
2022-09-18T20:45:36.849Z,97432.64
2022-09-18T20:48:05.930Z,97432.41
2022-09-18T20:50:34.904Z,97433.16
2022-09-18T20:53:08.228Z,97431.34
2022-09-18T20:55:36.913Z,97425.40
2022-09-18T20:58:05.674Z,97424.32
2022-09-18T21:00:37.101Z,97423.68
2022-09-18T21:03:06.640Z,97417.30
2022-09-18T21:05:35.819Z,97420.58
2022-09-18T21:08:04.527Z,97420.19
2022-09-18T21:10:33.398Z,97422.08
2022-09-18T21:13:02.590Z,97423.95
2022-09-18T21:15:31.413Z,97422.00
2022-09-18T21:18:00.500Z,97420.34
2022-09-18T21:20:29.541Z,97419.95
2022-09-18T21:23:16.437Z,97422.62
2022-09-18T21:25:48.224Z,97421.34
2022-09-18T21:28:16.817Z,97422.90
2022-09-18T21:30:45.474Z,97422.20
2022-09-18T21:33:15.447Z,97419.71
2022-09-18T21:35:52.522Z,97420.45
2022-09-18T21:38:21.355Z,97416.02
2022-09-18T21:40:50.065Z,97413.20
2022-09-18T21:43:18.809Z,97419.00
2022-09-18T21:45:49.381Z,97418.83
2022-09-18T21:48:19.585Z,97418.64
2022-09-18T21:50:51.302Z,97414.38
2022-09-18T21:53:20.053Z,97410.84
2022-09-18T21:55:48.722Z,97409.04
2022-09-18T21:58:18.601Z,97412.66
2022-09-18T22:00:47.445Z,97413.55
2022-09-18T22:03:17.500Z,97417.05
2022-09-18T22:05:46.401Z,97418.23
2022-09-18T22:08:15.892Z,97415.02
2022-09-18T22:10:46.687Z,97412.31
2022-09-18T22:13:15.348Z,97413.15
2022-09-18T22:15:44.027Z,97413.89
2022-09-18T22:18:13.120Z,97413.15
2022-09-18T22:20:41.803Z,97411.46
2022-09-18T22:23:10.409Z,97412.48
2022-09-18T22:25:39.692Z,97408.92
2022-09-18T22:28:08.962Z,97408.48
2022-09-18T22:30:37.913Z,97406.54
2022-09-18T22:33:06.645Z,97407.92
2022-09-18T22:35:35.614Z,97404.74
2022-09-18T22:38:04.285Z,97408.94
2022-09-18T22:40:34.010Z,97405.28
2022-09-18T22:43:02.853Z,97408.81
2022-09-18T22:45:31.551Z,97409.92
2022-09-18T22:48:00.238Z,97406.23
2022-09-18T22:50:29.024Z,97406.80
2022-09-18T22:52:58.358Z,97406.73
2022-09-18T22:55:27.068Z,97406.93
2022-09-18T22:57:57.475Z,97405.03
2022-09-18T23:00:25.490Z,97405.86
2022-09-18T23:02:55.039Z,97406.77
2022-09-18T23:05:23.746Z,97407.41
2022-09-18T23:07:52.499Z,97409.66
2022-09-18T23:10:22.289Z,97409.86
2022-09-18T23:12:51.302Z,97408.67
2022-09-18T23:15:19.981Z,97413.52
2022-09-18T23:17:50.100Z,97415.50
2022-09-18T23:20:19.999Z,97408.89
2022-09-18T23:22:48.931Z,97407.98
2022-09-18T23:25:17.757Z,97409.66
2022-09-18T23:27:46.942Z,97411.00
2022-09-18T23:30:15.920Z,97412.61
2022-09-18T23:32:48.248Z,97414.10
2022-09-18T23:35:17.067Z,97412.54
2022-09-18T23:37:45.832Z,97408.59
2022-09-18T23:40:15.557Z,97409.77
2022-09-18T23:42:47.075Z,97410.18
2022-09-18T23:45:16.120Z,97406.10
2022-09-18T23:47:44.883Z,97409.09
2022-09-18T23:50:13.630Z,97408.73
2022-09-18T23:52:44.024Z,97411.77
2022-09-18T23:55:12.714Z,97405.42
2022-09-18T23:57:41.422Z,97403.03
